»·PEaware :: WAT169 KABQ-KLAS

WAT169 :: KABQ-KLAS

FLIGHT INFORMATION

Flight Status: Arrived
Operator: Unknown
More flights by this operator :: More flights under this callsign
Pilot: Marty P. (27464)
Aircraft: BOEING 737-800
(B738)
More flights by this aircraft type
Origin: KABQ Albuquerque Intl Sunport
United States
Destination: KLAS McCarran Intl
United States
More flights between these airports :: More routes between these airports
Route: +RDRNR3 GUP J72 PGS TYSSN5
File this flight plan on PilotEdge
Remarks:
Altitude:
(Current/Filed)
38,000ft
Speed:
(Current/Filed)
470kts
Departed: 17-May-20 03:44 PM
Arrived: 17-May-20 04:55 PM
Distance/Time
Traveled:
421nm/1:11
Distance/Time
To Go:
Arrived

Flight Plot

Page will automatically refresh every two minutes.


Map Options




Map Legend


Flown Route
Filed Route
Departure Airport
Arrival Airport
Navaid (VOR, NDB)
Fix

Horizontal Profiles

Position Reports

Time Latitude Longitude Heading Altitude Ground
Speed
17-May-20 15:21 35.047921 -106.617648 185 5364ft 0kts
17-May-20 15:22 35.047921 -106.617648 185 5364ft 0kts
17-May-20 15:23 35.047921 -106.617648 185 5364ft 0kts
17-May-20 15:24 35.047921 -106.617648 185 5364ft 0kts
17-May-20 15:25 35.047921 -106.617648 185 5364ft 0kts
17-May-20 15:26 35.047921 -106.617648 185 5364ft 0kts
17-May-20 15:27 35.047921 -106.617648 185 5364ft 0kts
17-May-20 15:28 35.047921 -106.617648 185 5364ft 0kts
17-May-20 15:29 35.047921 -106.617648 185 5364ft 0kts
17-May-20 15:30 35.047921 -106.617648 185 5364ft 0kts
17-May-20 15:31 35.047921 -106.617648 185 5364ft 0kts
17-May-20 15:32 35.047921 -106.617648 185 5364ft 0kts
17-May-20 15:33 35.047921 -106.617648 185 5364ft 0kts
17-May-20 15:34 35.047921 -106.617648 185 5364ft 0kts
17-May-20 15:35 35.048025 -106.617681 133 5364ft 2kts
17-May-20 15:36 35.048423 -106.617909 238 5364ft 1kts
17-May-20 15:38 35.048444 -106.617848 266 5364ft 0kts
17-May-20 15:39 35.048430 -106.618721 268 5364ft 4kts
17-May-20 15:40 35.048213 -106.619408 214 5364ft 2kts
17-May-20 15:41 35.046432 -106.619590 180 5364ft 13kts
17-May-20 15:42 35.045468 -106.621186 232 5364ft 2kts
17-May-20 15:43 35.044443 -106.621183 122 5364ft 2kts
17-May-20 15:44 35.044226 -106.601527 89 5365ft 162kts
17-May-20 15:45 35.044022 -106.535915 81 6934ft 223kts
17-May-20 15:46 35.099834 -106.505276 328 8965ft 266kts
17-May-20 15:47 35.115418 -106.586660 259 11762ft 274kts
17-May-20 15:48 35.101037 -106.688217 259 12774ft 347kts
17-May-20 15:49 35.100088 -106.813431 278 14408ft 380kts
17-May-20 15:50 35.119081 -106.942240 280 16597ft 389kts
17-May-20 15:51 35.138854 -107.073835 280 18595ft 399kts
17-May-20 15:52 35.159065 -107.208918 280 20448ft 408kts
17-May-20 15:53 35.180606 -107.346562 281 22109ft 418kts
17-May-20 15:54 35.203459 -107.487116 281 23650ft 427kts
17-May-20 15:54 35.222817 -107.606934 281 24868ft 433kts
17-May-20 15:55 35.246160 -107.752512 280 26204ft 441kts
17-May-20 15:57 35.273740 -107.925908 280 27683ft 449kts
17-May-20 15:57 35.293635 -108.051837 280 28620ft 455kts
17-May-20 15:58 35.317530 -108.204208 280 29792ft 458kts
17-May-20 16:00 35.348023 -108.380851 285 31565ft 451kts
17-May-20 16:00 35.378476 -108.502252 287 32741ft 446kts
17-May-20 16:01 35.416390 -108.646301 287 34034ft 442kts
17-May-20 16:02 35.453490 -108.786000 286 35231ft 437kts
17-May-20 16:03 35.477439 -108.930611 275 36321ft 432kts
17-May-20 16:04 35.486264 -109.077644 273 37227ft 432kts
17-May-20 16:05 35.493728 -109.224233 272 38091ft 431kts
17-May-20 16:06 35.501027 -109.372735 272 38201ft 440kts
17-May-20 16:07 35.508187 -109.522314 272 38201ft 436kts
17-May-20 16:08 35.515100 -109.670827 272 38203ft 437kts
17-May-20 16:09 35.521805 -109.819778 272 38201ft 437kts
17-May-20 16:10 35.528341 -109.968213 272 38190ft 436kts
17-May-20 16:11 35.534418 -110.116654 271 38122ft 436kts
17-May-20 16:12 35.539753 -110.265132 271 38092ft 436kts
17-May-20 16:13 35.545513 -110.414352 271 38091ft 437kts
17-May-20 16:14 35.551282 -110.563719 272 38090ft 437kts
17-May-20 16:15 35.556901 -110.713029 271 38091ft 439kts
17-May-20 16:16 35.562315 -110.861950 271 38092ft 438kts
17-May-20 16:17 35.567622 -111.011884 271 38091ft 439kts
17-May-20 16:18 35.572738 -111.161199 271 38093ft 439kts
17-May-20 16:19 35.577707 -111.311343 271 38184ft 440kts
17-May-20 16:20 35.582482 -111.460938 271 38228ft 439kts
17-May-20 16:21 35.585423 -111.610715 270 38228ft 439kts
17-May-20 16:22 35.587750 -111.760708 270 38210ft 439kts
17-May-20 16:23 35.590569 -111.909439 270 38197ft 439kts
17-May-20 16:24 35.595242 -112.059469 271 38197ft 439kts
17-May-20 16:25 35.599923 -112.209173 271 38196ft 439kts
17-May-20 16:26 35.604451 -112.359091 271 38196ft 439kts
17-May-20 16:27 35.607760 -112.509100 270 38196ft 439kts
17-May-20 16:28 35.610686 -112.655052 270 38196ft 426kts
17-May-20 16:29 35.613532 -112.800805 270 38196ft 431kts
17-May-20 16:30 35.616232 -112.943237 269 36251ft 425kts
17-May-20 16:31 35.618867 -113.089481 269 33280ft 423kts
17-May-20 16:32 35.621335 -113.235673 269 29948ft 426kts
17-May-20 16:33 35.623623 -113.381702 269 27449ft 430kts
17-May-20 16:34 35.626412 -113.525419 272 24814ft 412kts
17-May-20 16:35 35.642195 -113.659970 276 22318ft 397kts
17-May-20 16:36 35.660313 -113.791329 276 19849ft 384kts
17-May-20 16:37 35.678032 -113.917578 276 18556ft 383kts
17-May-20 16:38 35.695727 -114.044798 276 16670ft 373kts
17-May-20 16:39 35.712959 -114.168588 275 14323ft 361kts
17-May-20 16:40 35.729369 -114.286982 275 12847ft 347kts
17-May-20 16:41 35.773961 -114.392001 322 12001ft 345kts
17-May-20 16:42 35.854999 -114.436079 335 12000ft 298kts
17-May-20 16:43 35.934428 -114.473348 335 11312ft 313kts
17-May-20 16:44 36.014366 -114.514137 319 10101ft 299kts
17-May-20 16:45 36.050176 -114.591832 275 9748ft 246kts
17-May-20 16:46 36.064309 -114.674118 276 8670ft 250kts
17-May-20 16:47 36.074173 -114.757247 262 8025ft 236kts
17-May-20 16:48 36.073370 -114.841089 263 6931ft 243kts
17-May-20 16:49 36.073692 -114.915051 262 5496ft 175kts
17-May-20 16:50 36.073591 -114.971990 261 4668ft 161kts
17-May-20 16:51 36.073622 -115.027699 262 3770ft 161kts
17-May-20 16:52 36.073657 -115.081746 266 2917ft 150kts
17-May-20 16:53 36.073659 -115.132684 265 2210ft 150kts
17-May-20 16:54 36.074429 -115.149889 299 2191ft 2kts
17-May-20 16:55 36.074716 -115.150494 303 2191ft 4kts
17-May-20 16:56 36.077341 -115.152511 335 2191ft 3kts
17-May-20 16:57 36.077379 -115.152533 335 2191ft 0kts
17-May-20 16:58 36.078740 -115.150542 93 2191ft 19kts
17-May-20 16:59 36.079476 -115.146706 22 2191ft 0kts

Navigation Log

Ident Type
Flight plan parsing failed, navigation log unavailable